Flight Track Log - Related Links

Times and Time Zones

All times are in EDT time to prevent confusion due to time zone crossing. See the N877PM flight status page for this flight to view local times or setup timezone preferences in your user account.

Time Position Orientation Groundspeed Altitude Reporting Facility
EDT Latitude Longitude Course Direction KTS MPH feet Rate Location/Type
Wed 05:27:30 PM 26.2208 -81.7242 24° Northeast 174 200 3,000  Level Miami Center
Wed 05:28:30 PM 26.2672 -81.7122 13° North 174 200 4,800 1,600 Climbing Miami Center
Wed 05:29:30 PM 26.3197 -81.7006 11° North 179 206 6,200 1,350 Climbing Miami Center
Wed 05:30:30 PM 26.3744 -81.6864 13° North 199 229 7,500 1,150 Climbing Miami Center
Wed 05:31:30 PM 26.4356 -81.6706 13° North 218 251 8,500 1,150 Climbing Miami Center
Wed 05:32:00 PM 26.6148 -81.7176 24° Northeast  Level FlightAware Approximate
Wed 05:32:30 PM 26.5006 -81.6569 11° North 236 272 9,800  Level Miami Center
Wed 05:33:30 PM 26.5703 -81.6389 13° North 241 277 11,000 1,150 Climbing Miami Center
Wed 05:34:30 PM 26.6397 -81.6208 13° North 241 277 12,100 1,200 Climbing Miami Center
Wed 05:35:30 PM 26.7172 -81.6100 North 241 277 13,400 1,400 Climbing Miami Center
Wed 05:36:30 PM 26.7844 -81.6011 North 246 283 14,900 1,400 Climbing Miami Center
Wed 05:37:30 PM 26.8494 -81.5919 North 237 273 16,200 1,250 Climbing Miami Center
Wed 05:38:30 PM 26.9103 -81.5828 North 232 267 17,400 1,200 Climbing Miami Center
Wed 05:39:30 PM 26.9689 -81.5736 North 213 245 18,600 1,200 Climbing Miami Center
Wed 05:40:30 PM 27.0256 -81.5667 North 202 232 19,800 1,200 Climbing Miami Center
Wed 05:41:30 PM 27.0800 -81.5572 North 202 232 21,000 1,100 Climbing Miami Center
Wed 05:42:30 PM 27.1283 -81.5497 North 197 227 22,000 900 Climbing Miami Center
Wed 05:43:30 PM 27.1831 -81.5403 North 197 227 22,800 900 Climbing Miami Center
Wed 05:44:30 PM 27.2458 -81.5311 North 197 227 23,800 900 Climbing Miami Center
Wed 05:45:30 PM 27.3047 -81.5219 North 197 227 24,600 750 Climbing Miami Center
Wed 05:46:30 PM 27.3656 -81.5125 North 202 232 25,300 750 Climbing Miami Center
Wed 05:47:30 PM 27.4219 -81.5078 North 214 246 26,100 800 Climbing Miami Center
Wed 05:48:30 PM 27.4828 -81.4986 North 220 253 26,900 850 Climbing Miami Center
Wed 05:49:30 PM 27.5542 -81.4875 North 220 253 27,800 750 Climbing Miami Center
Wed 05:50:30 PM 27.6150 -81.4783 North 220 253 28,400 600 Climbing Miami Center
Wed 05:51:30 PM 27.6778 -81.4689 North 220 253 29,000 650 Climbing Miami Center
Wed 05:52:30 PM 27.7367 -81.4597 North 220 253 29,700 750 Climbing Miami Center
Wed 05:53:30 PM 27.8058 -81.4483 North 220 253 30,500 650 Climbing Miami Center
Wed 05:54:30 PM 27.8647 -81.4367 10° North 220 253 31,000 550 Climbing Miami Center
Wed 05:55:30 PM 27.9294 -81.4275 North 220 253 31,600 600 Climbing Miami Center
Wed 05:56:30 PM 27.9925 -81.4183 North 225 259 32,200 550 Climbing Miami Center
Wed 05:57:30 PM 28.0575 -81.4069 North 225 259 32,700 650 Climbing Miami Center
Wed 05:58:30 PM 28.1286 -81.4003 North 225 259 33,500 700 Climbing Miami Center
Wed 05:59:30 PM 28.1914 -81.3933 North 225 259 34,100 600 Climbing Miami Center
Wed 06:00:30 PM 28.2544 -81.3819 North 230 265 34,700 450 Climbing Miami Center
Wed 06:01:30 PM 28.3131 -81.3725 North 230 265 35,000 150 Climbing Miami Center
Wed 06:02:30 PM 28.3783 -81.3608 North 249 287 35,000  Level Miami Center
Wed 06:03:30 PM 28.4683 -81.3481 North 261 300 35,000  Level Miami Center
Wed 06:04:42 PM 28.5600 -81.3350 North 282 325 35,000  Level Jacksonville Center
Wed 06:05:42 PM 28.6436 -81.3431 355° North 287 330 35,000  Level Jacksonville Center
Wed 06:06:42 PM 28.7250 -81.3514 355° North 294 338 35,000  Level Jacksonville Center
Wed 06:07:42 PM 28.8086 -81.3547 358° North 294 338 35,000  Level Jacksonville Center
Wed 06:08:42 PM 28.8942 -81.3678 352° North 294 338 35,000  Level Jacksonville Center
Wed 06:09:42 PM 28.9778 -81.3783 354° North 294 338 35,000  Level Jacksonville Center
Wed 06:10:42 PM 29.0656 -81.3864 355° North 299 344 35,000  Level Jacksonville Center
Wed 06:11:42 PM 29.1472 -81.3969 354° North 299 344 35,000  Level Jacksonville Center
Wed 06:12:42 PM 29.2350 -81.4028 357° North 299 344 35,000  Level Jacksonville Center
Wed 06:13:41 PM 29.3206 -81.4136 354° North 304 350 35,000  Level Jacksonville Center
Wed 06:14:42 PM 29.4106 -81.4217 356° North 314 361 35,000  Level Jacksonville Center
Wed 06:15:41 PM 29.4961 -81.4300 355° North 314 361 35,000  Level Jacksonville Center
Wed 06:16:42 PM 29.5839 -81.4383 355° North 314 361 35,000  Level Jacksonville Center
Wed 06:17:42 PM 29.6717 -81.4442 357° North 314 361 35,000  Level Jacksonville Center
Wed 06:18:41 PM 29.7572 -81.4522 355° North 314 361 35,000  Level Jacksonville Center
Wed 06:19:42 PM 29.8431 -81.4631 354° North 309 356 35,000  Level Jacksonville Center
Wed 06:20:42 PM 29.9286 -81.4689 357° North 309 356 35,000  Level Jacksonville Center
Wed 06:21:42 PM 30.0142 -81.4581 North 309 356 35,000  Level Jacksonville Center
Wed 06:22:42 PM 30.0972 -81.4136 25° Northeast 309 356 35,000  Level Jacksonville Center
Wed 06:23:41 PM 30.1781 -81.3692 25° Northeast 314 361 35,000  Level Jacksonville Center
Wed 06:24:41 PM 30.2611 -81.3244 25° Northeast 325 374 35,000  Level Jacksonville Center
Wed 06:25:42 PM 30.3442 -81.2822 24° Northeast 325 374 35,000  Level Jacksonville Center
Wed 06:26:42 PM 30.4269 -81.2400 24° Northeast 325 374 35,000  Level Jacksonville Center
Wed 06:27:41 PM 30.5100 -81.1950 25° Northeast 325 374 35,000  Level Jacksonville Center
Wed 06:28:42 PM 30.5950 -81.1503 24° Northeast 325 374 35,000  Level Jacksonville Center
Wed 06:29:41 PM 30.6778 -81.1053 25° Northeast 325 374 35,000  Level Jacksonville Center
Wed 06:30:42 PM 30.7608 -81.0625 24° Northeast 320 368 35,000  Level Jacksonville Center
Wed 06:31:41 PM 30.8436 -81.0150 26° Northeast 320 368 35,000  Level Jacksonville Center
Wed 06:32:42 PM 30.9306 -80.9697 24° Northeast 320 368 35,000  Level Jacksonville Center
Wed 06:33:42 PM 31.0156 -80.9242 25° Northeast 325 374 35,000  Level Jacksonville Center
Wed 06:34:42 PM 31.0983 -80.8789 25° Northeast 325 374 35,000  Level Jacksonville Center
Wed 06:35:42 PM 31.1744 -80.8167 35° Northeast 325 374 35,000  Level Jacksonville Center
Wed 06:36:42 PM 31.2506 -80.7492 37° Northeast 331 381 35,000  Level Jacksonville Center
Wed 06:37:42 PM 31.3225 -80.6794 40° Northeast 337 388 35,000  Level Jacksonville Center
Wed 06:38:42 PM 31.3986 -80.6169 35° Northeast 337 388 35,000  Level Jacksonville Center
Wed 06:39:42 PM 31.4747 -80.5467 38° Northeast 338 389 35,000  Level Jacksonville Center
Wed 06:40:41 PM 31.5486 -80.4792 38° Northeast 338 389 35,000  Level Jacksonville Center
Wed 06:41:42 PM 31.6122 -80.4189 39° Northeast 338 389 35,000  Level Jacksonville Center
Wed 06:42:41 PM 31.6900 -80.3508 37° Northeast 338 389 35,000  Level Jacksonville Center
Wed 06:43:41 PM 31.7639 -80.2831 38° Northeast 338 389 35,000  Level Jacksonville Center
Wed 06:44:42 PM 31.8375 -80.2125 39° Northeast 338 389 35,000  Level Jacksonville Center
Wed 06:45:42 PM 31.9133 -80.1442 37° Northeast 338 389 35,000  Level Jacksonville Center
Wed 06:46:42 PM 31.9892 -80.0758 37° Northeast 338 389 35,000  Level Jacksonville Center
Wed 06:47:42 PM 32.0628 -80.0047 39° Northeast 338 389 35,000  Level Jacksonville Center
Wed 06:48:42 PM 32.1403 -79.9336 38° Northeast 338 389 35,000  Level Jacksonville Center
Wed 06:49:42 PM 32.2139 -79.8650 38° Northeast 338 389 35,000  Level Jacksonville Center
Wed 06:50:41 PM 32.2894 -79.7961 38° Northeast 338 389 35,000  Level Jacksonville Center
Wed 06:51:42 PM 32.3650 -79.7247 39° Northeast 338 389 35,000  Level Jacksonville Center
Wed 06:52:42 PM 32.4403 -79.6556 38° Northeast 338 389 35,000  Level Jacksonville Center
Wed 06:53:42 PM 32.5239 -79.5739 39° Northeast 343 395 35,000  Level Jacksonville Center
Wed 06:54:42 PM 32.6014 -79.5044 37° Northeast 343 395 35,000 -100 Level Jacksonville Center
Wed 06:55:42 PM 32.6786 -79.4275 40° Northeast 343 395 34,800 -900 Descending Jacksonville Center
Wed 06:56:42 PM 32.7600 -79.3553 37° Northeast 348 400 33,200 -1,412 Descending Jacksonville Center
Wed 06:57:41 PM 32.8414 -79.2778 39° Northeast 361 415 32,000 -1,450 Descending Jacksonville Center
Wed 06:58:42 PM 32.9206 -79.2031 38° Northeast 361 415 30,300 -1,636 Descending Jacksonville Center
Wed 06:59:42 PM 32.9978 -79.1281 39° Northeast 361 415 28,700 -1,613 Descending Jacksonville Center
Wed 07:00:41 PM 33.0769 -79.0578 37° Northeast 361 415 27,100 -1,714 Descending Jacksonville Center
Wed 07:01:41 PM 33.1478 -78.9853 41° Northeast 355 409 25,300 -1,736 Descending Jacksonville Center
Wed 07:02:42 PM 33.2228 -78.9175 37° Northeast 347 399 23,600 -1,750 Descending Jacksonville Center
Wed 07:03:41 PM 33.2936 -78.8472 40° Northeast 331 381 21,800 -1,866 Descending Jacksonville Center
Wed 07:04:41 PM 33.3525 -78.7922 38° Northeast 326 375 19,900 -2,100 Descending Jacksonville Center
Wed 07:05:41 PM 33.4192 -78.7269 39° Northeast 313 360 17,600 -2,380 Descending Jacksonville Center
Wed 07:06:42 PM 33.4881 -78.6614 38° Northeast 313 360 15,100 -2,550 Descending Jacksonville Center
Wed 07:07:41 PM 33.5506 -78.6011 39° Northeast 303 349 12,500 -2,644 Descending Jacksonville Center
Wed 07:09:00 PM 33.6334 -78.5179 40° Northeast  Level FlightAware Approximate
Wed 07:16:00 PM 34.0789 -78.0818 36° Northeast  Level FlightAware Approximate
Wed 07:17:00 PM 34.1338 -78.0162 40° Northeast  Level FlightAware Approximate
Wed 07:18:00 PM 34.1970 -77.9530 40° Northeast  Level FlightAware Approximate
Wed 07:19:00 PM 34.2664 -77.9002 32° Northeast  Level FlightAware Approximate
Wed 07:20:00 PM 34.2667 -77.9000 32° Northeast  Level FlightAware Approximate
Wed 07:21:00 PM 34.2706 -77.9026 32° Northeast  Level Estimated

Login

Don't have an account? Register now (free) for customized features, flight alerts, and more!